createdAt,value
2018-02-22T00:01:26.995Z,68.93
2018-02-22T00:03:55.164Z,74.60
2018-02-22T00:06:24.424Z,68.43
2018-02-22T00:08:52.048Z,73.32
2018-02-22T00:11:22.787Z,67.28
2018-02-22T00:13:50.992Z,69.20
2018-02-22T00:16:19.300Z,76.28
2018-02-22T00:18:47.651Z,79.12
2018-02-22T00:21:17.846Z,82.15
2018-02-22T00:23:47.111Z,79.28
2018-02-22T00:26:15.308Z,73.53
2018-02-22T00:28:43.596Z,67.78
2018-02-22T00:31:11.421Z,85.38
2018-02-22T00:33:39.878Z,71.15
2018-02-22T00:36:07.661Z,72.82
2018-02-22T00:38:35.277Z,73.20
2018-02-22T00:41:04.256Z,71.45
2018-02-22T00:43:32.941Z,64.40
2018-02-22T00:46:00.715Z,74.62
2018-02-22T00:48:28.360Z,69.30
2018-02-22T00:50:56.121Z,66.50
2018-02-22T00:53:25.001Z,76.93
2018-02-22T00:55:52.896Z,74.43
2018-02-22T00:58:20.418Z,71.00
2018-02-22T01:00:48.696Z,70.53
2018-02-22T01:03:17.105Z,79.65
2018-02-22T01:05:44.770Z,81.07
2018-02-22T01:08:13.078Z,75.90
2018-02-22T01:10:40.578Z,69.07
2018-02-22T01:13:09.806Z,76.90
2018-02-22T01:15:37.322Z,81.87
2018-02-22T01:18:05.726Z,73.60
2018-02-22T01:20:33.850Z,66.60
2018-02-22T01:23:01.563Z,70.07
2018-02-22T01:25:29.552Z,66.62
2018-02-22T01:27:57.235Z,72.30
2018-02-22T01:30:25.797Z,69.65
2018-02-22T01:32:53.508Z,70.45
2018-02-22T01:35:21.127Z,67.53
2018-02-22T01:37:48.869Z,70.78
2018-02-22T01:40:16.688Z,78.15
2018-02-22T01:42:44.278Z,70.60
2018-02-22T01:45:12.919Z,68.30
2018-02-22T01:47:40.794Z,78.22
2018-02-22T01:50:08.574Z,74.55
2018-02-22T01:52:36.241Z,71.32
2018-02-22T01:55:03.928Z,69.45
2018-02-22T01:57:31.617Z,72.75
2018-02-22T01:59:59.261Z,69.50
2018-02-22T02:02:27.825Z,77.07
2018-02-22T02:04:55.559Z,71.70
2018-02-22T02:07:23.350Z,68.72
2018-02-22T02:09:50.910Z,69.30
2018-02-22T02:12:19.410Z,64.43
2018-02-22T02:14:46.901Z,70.57
2018-02-22T02:17:14.605Z,74.43
2018-02-22T02:19:43.019Z,75.00
2018-02-22T02:22:10.783Z,66.85
2018-02-22T02:24:39.516Z,69.15
2018-02-22T02:27:08.116Z,71.75
2018-02-22T02:29:36.554Z,67.22
2018-02-22T02:32:04.216Z,74.68
2018-02-22T02:34:31.856Z,76.03
2018-02-22T02:36:59.642Z,72.97
2018-02-22T02:39:27.340Z,71.20
2018-02-22T02:41:54.974Z,67.15
2018-02-22T02:44:22.495Z,71.47
2018-02-22T02:46:51.257Z,73.95
2018-02-22T02:49:18.978Z,63.45
2018-02-22T02:51:46.679Z,70.35
2018-02-22T02:54:14.306Z,69.57
2018-02-22T02:56:41.992Z,68.50
2018-02-22T02:59:09.845Z,65.80
2018-02-22T03:01:37.617Z,67.00
2018-02-22T03:04:05.293Z,62.65
2018-02-22T03:06:34.419Z,65.75
2018-02-22T03:09:02.114Z,73.30
2018-02-22T03:11:30.718Z,66.97
2018-02-22T03:13:58.363Z,80.45
2018-02-22T03:16:26.038Z,71.10
2018-02-22T03:18:53.750Z,68.40
2018-02-22T03:21:21.418Z,71.20
2018-02-22T03:23:49.689Z,63.78
2018-02-22T03:26:18.143Z,76.40
2018-02-22T03:28:45.878Z,72.78
2018-02-22T03:31:13.437Z,73.45
2018-02-22T03:33:41.972Z,74.87
2018-02-22T03:36:09.855Z,74.05
2018-02-22T03:38:37.422Z,75.00
2018-02-22T03:41:05.782Z,70.30
2018-02-22T03:43:34.430Z,64.95
2018-02-22T03:46:01.942Z,67.00
2018-02-22T03:48:30.467Z,65.40
2018-02-22T03:50:58.942Z,64.22
2018-02-22T03:53:27.517Z,64.70
2018-02-22T03:55:55.312Z,68.65
2018-02-22T03:58:23.759Z,73.43
2018-02-22T04:00:51.268Z,64.28
2018-02-22T04:03:19.281Z,73.15
2018-02-22T04:05:47.059Z,63.47
2018-02-22T04:08:15.251Z,77.65
2018-02-22T04:10:42.875Z,67.15
2018-02-22T04:13:10.414Z,75.68
2018-02-22T04:15:38.761Z,69.45
2018-02-22T04:18:08.209Z,70.15
2018-02-22T04:20:36.215Z,68.18
2018-02-22T04:23:04.689Z,69.70
2018-02-22T04:25:32.366Z,71.20
2018-02-22T04:28:00.837Z,71.18
2018-02-22T04:30:28.495Z,73.72
2018-02-22T04:32:56.365Z,68.97
2018-02-22T04:35:24.202Z,68.60
2018-02-22T04:37:52.683Z,73.25
2018-02-22T04:40:20.372Z,72.93
2018-02-22T04:42:48.014Z,64.05
2018-02-22T04:45:15.570Z,71.53
2018-02-22T04:47:43.233Z,61.72
2018-02-22T04:50:10.912Z,68.25
2018-02-22T04:52:38.826Z,72.25
2018-02-22T04:55:06.474Z,65.65
2018-02-22T04:57:34.215Z,62.00
2018-02-22T05:00:01.815Z,62.25
2018-02-22T05:02:30.308Z,63.47
2018-02-22T05:04:58.701Z,72.62
2018-02-22T05:07:27.315Z,75.25
2018-02-22T05:09:55.052Z,68.78
2018-02-22T05:12:22.605Z,74.12
2018-02-22T05:14:51.150Z,70.62
2018-02-22T05:17:19.573Z,66.20
2018-02-22T05:19:48.055Z,73.32
2018-02-22T05:22:15.723Z,66.68
2018-02-22T05:24:44.050Z,68.18
2018-02-22T05:27:11.570Z,65.95
2018-02-22T05:29:39.071Z,65.85
2018-02-22T05:32:06.668Z,63.40
2018-02-22T05:34:34.393Z,59.83
2018-02-22T05:37:01.976Z,66.95
2018-02-22T05:39:29.487Z,66.28
2018-02-22T05:41:57.202Z,62.20
2018-02-22T05:44:24.873Z,65.37
2018-02-22T05:46:53.298Z,67.78
2018-02-22T05:49:20.905Z,70.57
2018-02-22T05:51:48.612Z,61.58
2018-02-22T05:54:16.186Z,76.50
2018-02-22T05:56:43.803Z,64.45
2018-02-22T05:59:11.535Z,66.22
2018-02-22T06:01:39.626Z,62.62
2018-02-22T06:04:07.348Z,61.00
2018-02-22T06:06:34.997Z,66.75
2018-02-22T06:09:02.545Z,68.10
2018-02-22T06:11:30.174Z,65.70
2018-02-22T06:13:57.902Z,60.12
2018-02-22T06:16:26.240Z,63.53
2018-02-22T06:18:53.848Z,64.95
2018-02-22T06:21:21.398Z,72.45
2018-02-22T06:23:49.088Z,58.72
2018-02-22T06:26:16.717Z,69.00
2018-02-22T06:28:44.292Z,71.35
2018-02-22T06:31:11.935Z,69.37
2018-02-22T06:33:39.630Z,72.68
2018-02-22T06:36:07.194Z,68.68
2018-02-22T06:38:35.671Z,58.63
2018-02-22T06:41:03.230Z,65.15
2018-02-22T06:43:30.762Z,65.20
2018-02-22T06:45:58.326Z,66.35
2018-02-22T06:48:26.012Z,56.10
2018-02-22T06:50:53.534Z,59.33
2018-02-22T06:53:21.081Z,66.90
2018-02-22T06:55:48.678Z,65.18
2018-02-22T06:58:16.429Z,63.75
2018-02-22T07:00:43.926Z,69.10
2018-02-22T07:03:11.522Z,59.50
2018-02-22T07:05:39.790Z,59.10
2018-02-22T07:08:08.058Z,59.88
2018-02-22T07:13:10.168Z,61.15
2018-02-22T07:15:37.760Z,63.38
2018-02-22T07:18:05.356Z,65.75
2018-02-22T07:20:32.921Z,53.25
2018-02-22T07:23:00.533Z,59.42
2018-02-22T07:25:28.195Z,59.10
2018-02-22T07:27:55.767Z,58.53
2018-02-22T07:30:23.416Z,57.88
2018-02-22T07:32:51.088Z,60.20
2018-02-22T07:35:18.698Z,53.08
2018-02-22T07:37:46.409Z,54.40
2018-02-22T07:40:14.854Z,47.80
2018-02-22T07:42:43.275Z,52.67
2018-02-22T07:45:10.836Z,45.83
2018-02-22T07:47:38.396Z,46.75
2018-02-22T07:50:05.924Z,50.03
2018-02-22T07:52:33.514Z,44.15
2018-02-22T07:55:01.057Z,43.83
2018-02-22T07:57:28.787Z,39.03
2018-02-22T07:59:58.014Z,45.80
2018-02-22T08:02:25.546Z,46.00
2018-02-22T08:04:53.802Z,44.22
2018-02-22T08:07:21.326Z,38.08
2018-02-22T08:09:48.817Z,43.80
2018-02-22T08:12:16.311Z,48.35
2018-02-22T08:14:44.746Z,41.65
2018-02-22T08:17:12.359Z,45.17
2018-02-22T08:19:40.018Z,38.95
2018-02-22T08:22:07.542Z,37.55
2018-02-22T08:24:35.026Z,44.80
2018-02-22T08:27:03.289Z,40.05
2018-02-22T08:29:31.546Z,36.20
2018-02-22T08:31:59.042Z,40.78
2018-02-22T08:34:27.314Z,35.53
2018-02-22T08:36:55.578Z,38.03
2018-02-22T08:39:23.055Z,39.97
2018-02-22T08:41:52.102Z,38.83
2018-02-22T08:44:19.598Z,38.60
2018-02-22T08:46:47.854Z,36.38
2018-02-22T08:49:15.348Z,37.08
2018-02-22T08:51:43.602Z,38.85
2018-02-22T08:54:11.879Z,33.75
2018-02-22T08:56:40.326Z,35.40
2018-02-22T08:59:07.822Z,36.33
2018-02-22T09:01:36.097Z,40.35
2018-02-22T09:04:03.703Z,29.20
2018-02-22T09:06:31.318Z,33.15
2018-02-22T09:08:58.826Z,35.25
2018-02-22T09:11:26.368Z,33.60
2018-02-22T09:13:53.866Z,37.58
2018-02-22T09:16:21.376Z,29.90
2018-02-22T09:18:49.626Z,30.80
2018-02-22T09:21:17.139Z,33.22
2018-02-22T09:23:44.626Z,31.87
2018-02-22T09:26:12.111Z,32.45
2018-02-22T09:28:40.378Z,32.40
2018-02-22T09:31:08.654Z,31.08
2018-02-22T09:33:36.952Z,25.20
2018-02-22T09:36:05.421Z,32.08
2018-02-22T09:38:33.787Z,29.60
2018-02-22T09:41:01.271Z,28.70
2018-02-22T09:43:29.570Z,27.25
2018-02-22T09:45:57.094Z,23.20
2018-02-22T09:48:25.366Z,23.85
2018-02-22T09:50:53.738Z,28.00
2018-02-22T09:53:22.394Z,25.62
2018-02-22T09:55:49.894Z,23.73
2018-02-22T09:58:18.230Z,22.13
2018-02-22T10:00:45.726Z,26.62
2018-02-22T10:05:48.630Z,21.25
2018-02-22T10:08:16.906Z,25.70
2018-02-22T10:10:45.175Z,26.08
2018-02-22T10:13:12.683Z,24.87
2018-02-22T10:15:40.183Z,22.73
2018-02-22T10:18:07.678Z,19.80
2018-02-22T10:20:35.264Z,19.43
2018-02-22T10:23:02.770Z,21.07
2018-02-22T10:25:30.269Z,22.03
2018-02-22T10:27:58.558Z,20.73
2018-02-22T10:30:26.047Z,24.00
2018-02-22T10:32:53.554Z,17.73
2018-02-22T10:35:21.058Z,20.50
2018-02-22T10:37:48.558Z,19.47
2018-02-22T10:40:16.814Z,21.60
2018-02-22T10:42:44.387Z,20.77
2018-02-22T10:45:12.665Z,21.53
2018-02-22T10:47:40.170Z,19.63
2018-02-22T10:50:07.925Z,20.23
2018-02-22T10:52:35.487Z,21.63
2018-02-22T10:55:03.010Z,17.20
2018-02-22T10:57:30.790Z,18.73
2018-02-22T10:59:59.056Z,17.90
2018-02-22T11:02:33.237Z,16.73
2018-02-22T11:05:00.779Z,17.60
2018-02-22T11:07:28.320Z,17.13
2018-02-22T11:09:56.442Z,18.53
2018-02-22T11:12:23.962Z,23.60
2018-02-22T11:14:52.324Z,17.20
2018-02-22T11:17:19.927Z,17.80
2018-02-22T11:19:48.149Z,17.93
2018-02-22T11:22:15.662Z,15.57
2018-02-22T11:24:43.254Z,16.83
2018-02-22T11:27:11.556Z,15.77
2018-02-22T11:29:39.047Z,17.60
2018-02-22T11:32:06.586Z,18.70
2018-02-22T11:34:34.546Z,17.67
2018-02-22T11:37:02.104Z,16.07
2018-02-22T11:39:29.602Z,14.47
2018-02-22T11:41:57.206Z,16.13
2018-02-22T11:44:25.474Z,15.57
2018-02-22T11:46:53.827Z,15.63
2018-02-22T11:49:21.319Z,15.47
2018-02-22T11:51:51.051Z,15.43
2018-02-22T11:54:18.552Z,17.40
2018-02-22T11:56:46.841Z,14.23
2018-02-22T11:59:14.347Z,15.53
2018-02-22T12:01:41.845Z,13.27
2018-02-22T12:04:13.203Z,14.73
2018-02-22T12:06:42.113Z,14.50
2018-02-22T12:09:10.389Z,14.27
2018-02-22T12:11:38.655Z,16.97
2018-02-22T12:14:06.214Z,13.13
2018-02-22T12:16:33.716Z,15.30
2018-02-22T12:19:04.367Z,15.13
2018-02-22T12:21:32.298Z,14.20
2018-02-22T12:24:00.550Z,14.80
2018-02-22T12:26:28.034Z,12.27
2018-02-22T12:28:57.270Z,14.93
2018-02-22T12:31:24.789Z,16.10
2018-02-22T12:33:54.179Z,17.13
2018-02-22T12:36:21.751Z,12.53
2018-02-22T12:38:50.008Z,11.00
2018-02-22T12:41:18.069Z,15.23
2018-02-22T12:43:45.598Z,14.40
2018-02-22T12:46:13.098Z,13.97
2018-02-22T12:48:40.588Z,11.53
2018-02-22T12:51:08.115Z,11.57
2018-02-22T12:53:35.597Z,10.77
2018-02-22T12:56:03.858Z,13.40
2018-02-22T12:58:31.379Z,14.53
2018-02-22T13:00:58.866Z,11.20
2018-02-22T13:03:26.480Z,11.43
2018-02-22T13:05:54.011Z,12.77
2018-02-22T13:08:22.305Z,12.30
2018-02-22T13:10:49.798Z,12.10
2018-02-22T13:13:17.345Z,10.93
2018-02-22T13:15:45.100Z,12.93
2018-02-22T13:18:12.615Z,12.70
2018-02-22T13:20:40.891Z,12.90
2018-02-22T13:23:08.473Z,15.90
2018-02-22T13:25:35.980Z,11.63
2018-02-22T13:28:03.484Z,11.97
2018-02-22T13:30:31.746Z,13.60
2018-02-22T13:36:02.682Z,12.00
2018-02-22T13:38:41.975Z,14.50
2018-02-22T13:41:09.529Z,14.17
2018-02-22T13:43:37.030Z,13.93
2018-02-22T13:46:04.550Z,17.50
2018-02-22T13:48:44.009Z,15.23
2018-02-22T13:51:11.538Z,13.57
2018-02-22T13:53:39.026Z,15.13
2018-02-22T13:56:06.529Z,14.80
2018-02-22T13:58:34.841Z,12.10
2018-02-22T14:01:14.151Z,12.97
2018-02-22T14:03:41.685Z,14.30
2018-02-22T14:06:09.174Z,12.80
2018-02-22T14:08:45.042Z,16.10
2018-02-22T14:11:12.559Z,19.97
2018-02-22T14:13:40.055Z,15.73
2018-02-22T14:16:07.588Z,12.07
2018-02-22T14:18:35.855Z,14.50
2018-02-22T14:21:03.346Z,15.00
2018-02-22T14:23:31.630Z,15.10
2018-02-22T14:25:59.138Z,14.63
2018-02-22T14:28:26.642Z,13.93
2018-02-22T14:30:54.134Z,13.47
2018-02-22T14:33:21.622Z,13.70
2018-02-22T14:35:49.117Z,13.07
2018-02-22T14:38:17.366Z,13.57
2018-02-22T14:40:44.909Z,15.07
2018-02-22T14:43:12.408Z,13.60
2018-02-22T14:45:40.669Z,13.40
2018-02-22T14:48:09.188Z,14.03
2018-02-22T14:50:36.686Z,13.70
2018-02-22T14:53:04.180Z,17.27
2018-02-22T14:55:32.497Z,14.87
2018-02-22T14:57:59.982Z,15.00
2018-02-22T15:00:27.681Z,14.37
2018-02-22T15:02:55.942Z,13.87
2018-02-22T15:05:23.439Z,15.77
2018-02-22T15:07:50.934Z,15.87
2018-02-22T15:10:18.434Z,17.70
2018-02-22T15:12:46.720Z,17.17
2018-02-22T15:15:14.218Z,18.47
2018-02-22T15:17:41.718Z,14.10
2018-02-22T15:20:09.994Z,14.17
2018-02-22T15:22:37.549Z,14.73
2018-02-22T15:25:05.133Z,14.57
2018-02-22T15:27:32.641Z,11.97
2018-02-22T15:30:00.154Z,11.80
2018-02-22T15:32:27.650Z,11.00
2018-02-22T15:34:55.150Z,10.70
2018-02-22T15:37:22.833Z,14.20
2018-02-22T15:39:50.325Z,13.00
2018-02-22T15:42:17.833Z,13.67
2018-02-22T15:44:46.106Z,11.40
2018-02-22T15:47:14.392Z,11.50
2018-02-22T15:49:42.667Z,11.80
2018-02-22T15:52:10.979Z,12.25
2018-02-22T15:54:38.508Z,14.57
2018-02-22T15:57:06.097Z,12.55
2018-02-22T15:59:33.629Z,13.82
2018-02-22T16:02:02.043Z,14.35
2018-02-22T16:04:29.671Z,12.48
2018-02-22T16:06:57.983Z,13.40
2018-02-22T16:09:25.486Z,14.95
2018-02-22T16:11:52.974Z,12.85
2018-02-22T16:14:21.306Z,11.73
2018-02-22T16:16:48.832Z,12.07
2018-02-22T16:19:16.318Z,11.82
2018-02-22T16:21:44.179Z,10.35
2018-02-22T16:24:11.868Z,11.90
2018-02-22T16:26:39.352Z,11.95
2018-02-22T16:29:07.614Z,11.45
2018-02-22T16:31:35.166Z,13.23
2018-02-22T16:34:02.914Z,14.85
2018-02-22T16:36:30.490Z,13.98
2018-02-22T16:38:58.109Z,13.48
2018-02-22T16:41:25.768Z,9.75
2018-02-22T16:43:54.021Z,13.05
2018-02-22T16:46:21.637Z,11.57
2018-02-22T16:48:50.297Z,11.80
2018-02-22T16:51:17.836Z,13.20
2018-02-22T16:53:45.521Z,16.42
2018-02-22T16:56:13.150Z,9.80
2018-02-22T16:58:41.587Z,17.55
2018-02-22T17:01:09.246Z,12.23
2018-02-22T17:03:36.867Z,12.93
2018-02-22T17:06:04.476Z,14.75
2018-02-22T17:08:32.787Z,12.75
2018-02-22T17:11:00.528Z,12.18
2018-02-22T17:13:28.895Z,13.95
2018-02-22T17:15:57.312Z,14.18
2018-02-22T17:18:25.136Z,11.82
2018-02-22T17:20:52.825Z,10.45
2018-02-22T17:23:21.098Z,11.90
2018-02-22T17:25:55.070Z,12.55
2018-02-22T17:28:28.194Z,15.82
2018-02-22T17:31:02.102Z,15.93
2018-02-22T17:33:29.621Z,13.32
2018-02-22T17:36:01.399Z,12.48
2018-02-22T17:38:37.281Z,11.68
2018-02-22T17:41:09.138Z,12.43
2018-02-22T17:43:38.659Z,11.23
2018-02-22T17:46:08.068Z,8.63
2018-02-22T17:48:39.012Z,12.82
2018-02-22T17:51:06.814Z,12.05
2018-02-22T17:53:35.351Z,12.35
2018-02-22T17:56:03.882Z,11.38
2018-02-22T17:58:31.378Z,9.68
2018-02-22T18:01:01.219Z,10.80
2018-02-22T18:03:32.387Z,11.10
2018-02-22T18:06:00.802Z,13.55
2018-02-22T18:08:30.316Z,15.02
2018-02-22T18:11:00.352Z,12.70
2018-02-22T18:13:28.853Z,15.80
2018-02-22T18:15:56.581Z,13.50
2018-02-22T18:18:24.155Z,14.85
2018-02-22T18:20:53.661Z,19.70
2018-02-22T18:23:30.295Z,15.68
2018-02-22T18:26:01.050Z,14.40
2018-02-22T18:28:31.697Z,16.77
2018-02-22T18:31:00.318Z,13.88
2018-02-22T18:33:31.848Z,15.82
2018-02-22T18:36:03.235Z,14.95
2018-02-22T18:38:39.259Z,13.57
2018-02-22T18:41:10.247Z,16.45
2018-02-22T18:43:40.619Z,15.80
2018-02-22T18:46:09.915Z,15.82
2018-02-22T18:48:39.077Z,15.45
2018-02-22T18:51:10.319Z,13.43
2018-02-22T18:53:39.935Z,14.10
2018-02-22T18:56:11.218Z,17.62
2018-02-22T18:58:43.069Z,15.73
2018-02-22T19:01:10.885Z,14.90
2018-02-22T19:03:42.605Z,16.73
2018-02-22T19:06:12.019Z,16.08
2018-02-22T19:08:41.943Z,16.87
2018-02-22T19:11:14.759Z,16.98
2018-02-22T19:13:45.875Z,14.35
2018-02-22T19:16:20.163Z,15.13
2018-02-22T19:18:49.431Z,15.18
2018-02-22T19:21:18.840Z,15.93
2018-02-22T19:23:52.322Z,16.95
2018-02-22T19:26:27.585Z,20.77
2018-02-22T19:28:56.221Z,16.15
2018-02-22T19:31:24.780Z,15.88
2018-02-22T19:33:58.778Z,19.15
2018-02-22T19:36:31.817Z,15.55
2018-02-22T19:39:03.734Z,20.48
2018-02-22T19:41:43.540Z,17.67
2018-02-22T19:44:15.527Z,16.80
2018-02-22T19:46:45.464Z,20.37
2018-02-22T19:49:21.308Z,24.20
2018-02-22T19:51:51.601Z,21.58
2018-02-22T19:54:20.208Z,15.90
2018-02-22T19:56:51.976Z,15.52
2018-02-22T19:59:21.742Z,17.15
2018-02-22T20:04:28.934Z,16.98
2018-02-22T20:09:43.849Z,23.00
2018-02-22T20:12:17.220Z,21.85
2018-02-22T20:14:52.688Z,21.75
2018-02-22T20:17:23.576Z,24.42
2018-02-22T20:19:52.864Z,21.65
2018-02-22T20:22:27.957Z,20.92
2018-02-22T20:25:04.029Z,22.52
2018-02-22T20:27:52.218Z,24.45
2018-02-22T20:33:15.299Z,23.08
2018-02-22T20:35:43.039Z,23.20
2018-02-22T20:38:22.165Z,27.70
2018-02-22T20:40:55.445Z,24.95
2018-02-22T20:43:24.198Z,24.30
2018-02-22T20:46:09.480Z,26.48
2018-02-22T20:48:40.140Z,25.30
2018-02-22T20:51:12.901Z,23.50
2018-02-22T20:53:42.398Z,23.95
2018-02-22T20:56:12.172Z,29.45
2018-02-22T20:58:41.314Z,28.77
2018-02-22T21:01:21.909Z,28.17
2018-02-22T21:03:53.032Z,22.80
2018-02-22T21:06:21.805Z,25.83
2018-02-22T21:08:50.198Z,29.52
2018-02-22T21:14:18.185Z,27.10
2018-02-22T21:16:47.830Z,30.90
2018-02-22T21:19:23.553Z,29.98
2018-02-22T21:22:17.329Z,30.05
2018-02-22T21:24:58.504Z,24.50
2018-02-22T21:27:30.914Z,28.30
2018-02-22T21:30:15.560Z,33.40
2018-02-22T21:33:06.940Z,27.77
2018-02-22T21:35:36.979Z,28.45
2018-02-22T21:38:11.708Z,33.38
2018-02-22T21:40:39.336Z,30.10
2018-02-22T21:43:06.951Z,30.08
2018-02-22T21:45:35.382Z,31.10
2018-02-22T21:48:03.082Z,26.55
2018-02-22T21:50:30.679Z,26.30
2018-02-22T21:52:59.017Z,28.10
2018-02-22T21:55:27.671Z,27.75
2018-02-22T21:57:56.038Z,29.60
2018-02-22T22:00:23.727Z,28.50
2018-02-22T22:02:51.340Z,29.90
2018-02-22T22:05:19.780Z,27.30
2018-02-22T22:07:48.176Z,35.28
2018-02-22T22:10:16.627Z,29.40
2018-02-22T22:12:45.011Z,31.33
2018-02-22T22:15:13.587Z,37.28
2018-02-22T22:17:41.260Z,36.00
2018-02-22T22:20:08.957Z,35.08
2018-02-22T22:22:36.716Z,30.12
2018-02-22T22:25:04.739Z,30.05
2018-02-22T22:27:32.380Z,30.12
2018-02-22T22:29:59.965Z,31.02
2018-02-22T22:32:28.458Z,35.65
2018-02-22T22:34:56.093Z,28.67
2018-02-22T22:37:23.700Z,30.37
2018-02-22T22:39:51.356Z,29.85
2018-02-22T22:42:18.963Z,31.55
2018-02-22T22:44:47.497Z,31.48
2018-02-22T22:47:15.145Z,27.60
2018-02-22T22:49:43.515Z,31.50
2018-02-22T22:52:11.262Z,30.52
2018-02-22T22:54:38.861Z,29.98
2018-02-22T22:57:06.443Z,30.98
2018-02-22T22:59:34.287Z,28.87
2018-02-22T23:02:01.962Z,35.25
2018-02-22T23:04:29.622Z,30.75
2018-02-22T23:06:58.151Z,24.65
2018-02-22T23:09:26.498Z,32.05
2018-02-22T23:11:54.938Z,33.10
2018-02-22T23:14:22.699Z,29.20
2018-02-22T23:16:50.396Z,30.75
2018-02-22T23:19:18.111Z,27.65
2018-02-22T23:21:45.689Z,26.40
2018-02-22T23:24:13.859Z,29.55
2018-02-22T23:26:41.523Z,32.10
2018-02-22T23:29:09.133Z,32.38
2018-02-22T23:31:36.659Z,28.38
2018-02-22T23:34:04.309Z,30.83
2018-02-22T23:36:33.037Z,31.17
2018-02-22T23:39:01.253Z,35.38
2018-02-22T23:41:49.031Z,30.75
2018-02-22T23:44:16.666Z,29.30
2018-02-22T23:46:44.972Z,32.13
2018-02-22T23:49:13.634Z,27.40
2018-02-22T23:54:28.289Z,25.67
2018-02-22T23:56:57.129Z,35.58
